METAR Data
IDs: Format: Raw Decoded Include TAF

Data at: 1528 UTC 22 Apr 2021

KVNC 221515Z AUTO 07009KT 7SM CLR 24/15 A3010 RMK AO2
KVNC 221455Z AUTO 06010KT 8SM CLR 24/15 A3010 RMK AO2
KVNC 221435Z AUTO 05010G15KT 9SM CLR 23/15 A3010 RMK AO2
KVNC 221415Z AUTO 05012KT 8SM CLR 22/15 A3010 RMK AO2
KVNC 221355Z AUTO 05015KT 8SM CLR 22/15 A3010 RMK AO2
KVNC 221335Z AUTO 04013KT 8SM CLR 21/15 A3010 RMK AO2
KVNC 221315Z AUTO 04012KT 9SM CLR 20/15 A3009 RMK AO2
KVNC 221255Z AUTO 04012KT 6SM HZ CLR 20/16 A3009 RMK AO2
KVNC 221235Z AUTO 04012KT 8SM CLR 19/16 A3009 RMK AO2
KVNC 221215Z AUTO 04010KT 8SM CLR 19/16 A3009 RMK AO2
KVNC 221155Z AUTO 02009KT 7SM CLR 19/16 A3008 RMK AO2
KVNC 221135Z AUTO 02009KT 7SM CLR 19/16 A3007 RMK AO2
KVNC 221115Z AUTO 36008KT 8SM CLR 19/16 A3007 RMK AO2
KVNC 221055Z AUTO 00000KT 9SM CLR 18/15 A3006 RMK AO2
KVNC 221035Z AUTO 02003KT 8SM CLR 18/15 A3005 RMK AO2
KVNC 221015Z AUTO 03003KT 8SM CLR 18/16 A3005 RMK AO2
KVNC 220955Z AUTO 00000KT 9SM CLR 19/15 A3004 RMK AO2
KVNC 220935Z AUTO 01004KT 7SM CLR 19/15 A3004 RMK AO2
KVNC 220915Z AUTO 02004KT 9SM CLR 19/16 A3004 RMK AO2
KVNC 220855Z AUTO 03004KT 8SM CLR 18/16 A3004 RMK AO2
KVNC 220835Z AUTO 08004KT 8SM CLR 17/16 A3004 RMK AO2
KVNC 220815Z AUTO 00000KT 9SM CLR 18/16 A3004 RMK AO2
KVNC 220755Z AUTO 00000KT 8SM CLR 18/15 A3003 RMK AO2
KVNC 220735Z AUTO 09003KT 8SM CLR 19/16 A3003 RMK AO2
KVNC 220715Z AUTO 00000KT 8SM CLR 19/15 A3003 RMK AO2
KVNC 220655Z AUTO 04004KT 8SM CLR 20/15 A3003 RMK AO2
KVNC 220635Z AUTO 00000KT 8SM CLR 22/15 A3004 RMK AO2
KVNC 220615Z AUTO VRB06KT 9SM CLR 22/15 A3004 RMK AO2
KVNC 220555Z AUTO 35006KT 9SM FEW025 22/15 A3004 RMK AO2
KVNC 220535Z AUTO 34008G16KT 8SM CLR 23/15 A3004 RMK AO2
KVNC 220515Z AUTO 33009G17KT 9SM CLR 23/14 A3004 RMK AO2
KVNC 220455Z AUTO 33012G18KT 9SM CLR 23/14 A3003 RMK AO2
KVNC 220435Z AUTO 33012KT 8SM CLR 23/15 A3004 RMK AO2
KVNC 220415Z AUTO 33014G19KT 9SM CLR 23/14 A3003 RMK AO2
KVNC 220355Z AUTO 33009G14KT 8SM CLR 23/15 A3003 RMK AO2
KVNC 220335Z AUTO 34008KT 8SM CLR 23/16 A3004 RMK AO2
KVNC 220315Z AUTO 34006KT 9SM CLR 23/16 A3004 RMK AO2
KVNC 220255Z AUTO 34006KT 9SM CLR 23/16 A3004 RMK AO2
KVNC 220235Z AUTO 34008KT 8SM CLR 23/16 A3004 RMK AO2
KVNC 220215Z AUTO 33007KT 10SM CLR 23/16 A3003 RMK AO2
KVNC 220155Z AUTO 33008KT 8SM CLR 23/16 A3003 RMK AO2
KVNC 220135Z AUTO 32009KT 8SM CLR 23/17 A3003 RMK AO2
KVNC 220115Z AUTO 32010KT 7SM CLR 23/16 A3003 RMK AO2
KVNC 220055Z AUTO 32009KT 8SM SCT060 24/17 A3002 RMK AO2
KVNC 220035Z AUTO 32010KT 8SM BKN060 BKN070 24/17 A3003 RMK AO2
KVNC 220015Z AUTO 32012G18KT 9SM BKN060 BKN070 24/17 A3002 RMK AO2
KVNC 212355Z AUTO 32011G16KT 7SM BKN060 BKN070 24/17 A3002 RMK AO2
KVNC 212335Z AUTO 31010KT 9SM CLR 24/17 A3002 RMK AO2
KVNC 212315Z AUTO 31010G16KT 7SM CLR 25/17 A3001 RMK AO2
KVNC 212255Z AUTO 31011G17KT 9SM CLR 25/16 A3001 RMK AO2
KVNC 212235Z AUTO 31012KT 8SM CLR 25/16 A3001 RMK AO2
KVNC 212215Z AUTO 32012G18KT 8SM CLR 26/17 A3001 RMK AO2
KVNC 212155Z AUTO 31010G18KT 8SM CLR 26/17 A3000 RMK AO2
KVNC 212135Z AUTO 30012KT 8SM CLR 26/17 A3000 RMK AO2
KVNC 212115Z AUTO 31012KT 8SM CLR 26/17 A2999 RMK AO2
KVNC 212055Z AUTO 29012KT 6SM HZ FEW060 26/18 A2999 RMK AO2
KVNC 212035Z AUTO 30011KT 8SM FEW060 26/18 A3000 RMK AO2
KVNC 212015Z AUTO 30010KT 9SM CLR 26/19 A2999 RMK AO2
KVNC 211955Z AUTO 30011KT 8SM FEW070 26/19 A3000 RMK AO2
KVNC 211935Z AUTO 30008KT 270V330 8SM BKN070 BKN075 26/19 A3001 RMK AO2
KVNC 211915Z AUTO 32009KT 8SM SCT055 BKN070 26/19 A3001 RMK AO2
KVNC 211855Z AUTO 30008KT 6SM HZ OVC055 26/18 A3001 RMK AO2
KVNC 211835Z AUTO 31008KT 8SM OVC060 25/17 A3002 RMK AO2
KVNC 211815Z AUTO 30007KT 7SM SCT060 SCT070 26/17 A3003 RMK AO2
KVNC 211755Z AUTO 30008KT 7SM FEW050 SCT065 26/17 A3003 RMK AO2
KVNC 211735Z AUTO 30006KT 7SM BKN050 OVC065 25/16 A3003 RMK AO2
KVNC 211715Z AUTO 29005KT 8SM SCT050 SCT060 BKN080 25/16 A3004 RMK AO2
KVNC 211655Z AUTO 29005KT 7SM SCT060 25/16 A3003 RMK AO2
KVNC 211635Z AUTO 28006KT 7SM FEW060 26/15 A3004 RMK AO2
KVNC 211615Z AUTO 36005KT 9SM CLR 26/12 A3004 RMK AO2
KVNC 211555Z AUTO VRB06G11KT 8SM CLR 26/15 A3004 RMK AO2 LTG DSNT SE AND SW
KVNC 211535Z AUTO 33008KT 9SM FEW055 26/13 A3004 RMK AO2
KVNC 211515Z AUTO 36005KT 8SM BKN055 26/13 A3004 RMK AO2
KVNC 211455Z AUTO 02008KT 9SM BKN055 26/14 A3003 RMK AO2
KVNC 211435Z AUTO 01008KT 8SM SCT060 25/17 A3002 RMK AO2 LTG DSNT SW
KVNC 211415Z AUTO 02009KT 8SM CLR 24/18 A3001 RMK AO2
KVNC 211355Z AUTO 01007KT 9SM FEW065 25/19 A3001 RMK AO2
KVNC 211335Z AUTO 36007KT 5SM HZ BKN060 24/19 A3001 RMK AO2
KVNC 211315Z AUTO 01008KT 8SM FEW043 SCT055 OVC060 24/19 A3001 RMK AO2
KVNC 211255Z AUTO 35008KT 8SM BKN040 BKN045 OVC060 24/19 A3001 RMK AO2
KVNC 211235Z AUTO 35005KT 8SM OVC042 24/19 A3001 RMK AO2
KVNC 211215Z AUTO VRB04KT 8SM BKN043 OVC048 24/21 A3000 RMK AO2
KVNC 211155Z AUTO 34006KT 7SM SCT043 SCT050 SCT055 24/21 A3000 RMK AO2
KVNC 211135Z AUTO 01007KT 7SM FEW050 23/21 A2998 RMK AO2
KVNC 211115Z AUTO 36008KT 7SM FEW011 BKN050 BKN065 24/22 A2997 RMK AO2
KVNC 211055Z AUTO 33010KT 8SM SCT012 BKN050 OVC120 24/22 A2997 RMK AO2
KVNC 211035Z AUTO 33011G17KT 6SM BR BKN013 BKN020 OVC055 24/22 A2997 RMK AO2
KVNC 211015Z AUTO 32009G16KT 6SM BR SCT010 BKN016 OVC055 24/22 A2997 RMK AO2 LTG DSNT SE
KVNC 210955Z AUTO 32013G18KT 6SM BR BKN009 BKN013 OVC055 24/23 A2997 RMK AO2 LTG DSNT SE
KVNC 210935Z AUTO 31011KT 6SM VCTS BR SCT011 BKN016 OVC055 25/23 A2996 RMK AO2 LTG DSNT SE
KVNC 210915Z AUTO 31008KT 6SM BR FEW020 BKN027 OVC032 25/23 A2997 RMK AO2
KVNC 210855Z AUTO 30007KT 6SM BR BKN020 OVC026 25/23 A2996 RMK AO2
KVNC 210835Z AUTO 30007KT 6SM BR OVC027 25/23 A2996 RMK AO2
KVNC 210815Z AUTO 30008KT 6SM BR OVC026 25/23 A2996 RMK AO2
KVNC 210755Z AUTO 29008KT 6SM BR OVC025 25/23 A2996 RMK AO2
KVNC 210735Z AUTO 29008KT 6SM BR FEW014 SCT019 OVC025 25/23 A2996 RMK AO2
KVNC 210715Z AUTO 28007KT 7SM SCT014 SCT020 OVC025 25/23 A2996 RMK AO2
KVNC 210655Z AUTO 27008KT 6SM BR SCT014 OVC021 25/23 A2996 RMK AO2
KVNC 210635Z AUTO 28007KT 7SM SCT015 OVC020 25/23 A2996 RMK AO2
KVNC 210615Z AUTO 29006KT 6SM BR OVC019 25/23 A2997 RMK AO2
KVNC 210555Z AUTO 29008KT 7SM BKN016 24/22 A2997 RMK AO2
KVNC 210535Z AUTO 29008KT 7SM BKN012 24/23 A2997 RMK AO2
KVNC 210515Z AUTO 29009KT 6SM BR BKN012 BKN022 OVC027 24/23 A2997 RMK AO2
KVNC 210455Z AUTO 30007KT 6SM BR BKN012 BKN022 BKN026 24/23 A2997 RMK AO2
KVNC 210435Z AUTO 29009KT 6SM BR BKN012 BKN020 24/23 A2998 RMK AO2
KVNC 210415Z AUTO 28005KT 5SM BR FEW010 BKN013 OVC026 24/23 A2998 RMK AO2
KVNC 210355Z AUTO 25006KT 6SM BR SCT013 BKN023 OVC027 25/23 A2998 RMK AO2
KVNC 210335Z AUTO 27006KT 6SM BR FEW012 BKN021 BKN028 24/23 A2998 RMK AO2